sensor_id;sensor_type;location;lat;lon;timestamp;P1;durP1;ratioP1;P2;durP2;ratioP2
17145;SDS011;8688;54.444;18.444;2023-07-30T00:01:22;3.00;;;2.00;;
17145;SDS011;8688;54.444;18.444;2023-07-30T00:03:50;2.60;;;1.90;;
17145;SDS011;8688;54.444;18.444;2023-07-30T00:06:20;2.47;;;1.77;;
17145;SDS011;8688;54.444;18.444;2023-07-30T00:08:49;1.85;;;1.50;;
17145;SDS011;8688;54.444;18.444;2023-07-30T00:11:17;1.88;;;1.50;;
17145;SDS011;8688;54.444;18.444;2023-07-30T00:13:47;1.98;;;1.75;;
17145;SDS011;8688;54.444;18.444;2023-07-30T00:16:15;3.25;;;1.88;;
17145;SDS011;8688;54.444;18.444;2023-07-30T00:18:43;4.03;;;1.80;;
17145;SDS011;8688;54.444;18.444;2023-07-30T00:21:11;3.53;;;2.10;;
17145;SDS011;8688;54.444;18.444;2023-07-30T00:23:40;1.63;;;1.52;;
17145;SDS011;8688;54.444;18.444;2023-07-30T00:26:08;2.53;;;1.92;;
17145;SDS011;8688;54.444;18.444;2023-07-30T00:28:36;3.08;;;1.70;;
17145;SDS011;8688;54.444;18.444;2023-07-30T00:31:04;2.97;;;1.85;;
17145;SDS011;8688;54.444;18.444;2023-07-30T00:33:32;3.50;;;2.10;;
17145;SDS011;8688;54.444;18.444;2023-07-30T00:36:00;5.82;;;2.33;;
17145;SDS011;8688;54.444;18.444;2023-07-30T00:38:28;5.25;;;2.22;;
17145;SDS011;8688;54.444;18.444;2023-07-30T00:40:57;4.80;;;2.72;;
17145;SDS011;8688;54.444;18.444;2023-07-30T00:43:26;4.93;;;2.33;;
17145;SDS011;8688;54.444;18.444;2023-07-30T00:45:54;5.90;;;2.50;;
17145;SDS011;8688;54.444;18.444;2023-07-30T00:48:22;7.40;;;2.80;;
17145;SDS011;8688;54.444;18.444;2023-07-30T00:50:50;5.28;;;2.40;;
17145;SDS011;8688;54.444;18.444;2023-07-30T00:53:22;4.97;;;2.80;;
17145;SDS011;8688;54.444;18.444;2023-07-30T00:55:52;5.55;;;2.70;;
17145;SDS011;8688;54.444;18.444;2023-07-30T00:58:22;3.65;;;2.05;;
17145;SDS011;8688;54.444;18.444;2023-07-30T01:00:51;4.85;;;2.22;;
17145;SDS011;8688;54.444;18.444;2023-07-30T01:03:20;3.00;;;2.40;;
17145;SDS011;8688;54.444;18.444;2023-07-30T01:05:48;4.25;;;1.90;;
17145;SDS011;8688;54.444;18.444;2023-07-30T01:08:15;4.25;;;2.50;;
17145;SDS011;8688;54.444;18.444;2023-07-30T01:10:43;4.38;;;2.47;;
17145;SDS011;8688;54.444;18.444;2023-07-30T01:13:12;6.10;;;3.28;;
17145;SDS011;8688;54.444;18.444;2023-07-30T01:15:43;9.25;;;2.85;;
17145;SDS011;8688;54.444;18.444;2023-07-30T01:18:11;6.03;;;3.00;;
17145;SDS011;8688;54.444;18.444;2023-07-30T01:20:39;5.82;;;3.55;;
17145;SDS011;8688;54.444;18.444;2023-07-30T01:23:08;5.70;;;3.05;;
17145;SDS011;8688;54.444;18.444;2023-07-30T01:25:36;4.07;;;2.63;;
17145;SDS011;8688;54.444;18.444;2023-07-30T01:28:05;3.25;;;2.33;;
17145;SDS011;8688;54.444;18.444;2023-07-30T01:30:37;5.00;;;2.45;;
17145;SDS011;8688;54.444;18.444;2023-07-30T01:33:09;2.80;;;2.25;;
17145;SDS011;8688;54.444;18.444;2023-07-30T01:35:37;5.05;;;2.40;;
17145;SDS011;8688;54.444;18.444;2023-07-30T01:38:09;3.55;;;2.47;;
17145;SDS011;8688;54.444;18.444;2023-07-30T01:40:38;4.65;;;2.47;;
17145;SDS011;8688;54.444;18.444;2023-07-30T01:43:07;3.33;;;2.33;;
17145;SDS011;8688;54.444;18.444;2023-07-30T01:45:35;2.63;;;2.28;;
17145;SDS011;8688;54.444;18.444;2023-07-30T01:48:04;3.13;;;2.65;;
17145;SDS011;8688;54.444;18.444;2023-07-30T01:50:34;3.88;;;2.25;;
17145;SDS011;8688;54.444;18.444;2023-07-30T01:53:02;4.00;;;2.17;;
17145;SDS011;8688;54.444;18.444;2023-07-30T01:55:31;2.70;;;2.40;;
17145;SDS011;8688;54.444;18.444;2023-07-30T01:57:59;3.70;;;2.42;;
17145;SDS011;8688;54.444;18.444;2023-07-30T02:00:27;3.08;;;2.20;;
17145;SDS011;8688;54.444;18.444;2023-07-30T02:02:55;4.28;;;2.30;;
17145;SDS011;8688;54.444;18.444;2023-07-30T02:05:24;5.35;;;2.50;;
17145;SDS011;8688;54.444;18.444;2023-07-30T02:07:52;3.35;;;2.38;;
17145;SDS011;8688;54.444;18.444;2023-07-30T02:10:20;5.00;;;2.58;;
17145;SDS011;8688;54.444;18.444;2023-07-30T02:12:50;3.35;;;2.70;;
17145;SDS011;8688;54.444;18.444;2023-07-30T02:15:18;4.80;;;2.40;;
17145;SDS011;8688;54.444;18.444;2023-07-30T02:17:47;3.80;;;2.70;;
17145;SDS011;8688;54.444;18.444;2023-07-30T02:20:15;2.97;;;2.50;;
17145;SDS011;8688;54.444;18.444;2023-07-30T02:22:45;3.03;;;2.72;;
17145;SDS011;8688;54.444;18.444;2023-07-30T02:25:13;3.45;;;2.60;;
17145;SDS011;8688;54.444;18.444;2023-07-30T02:27:41;5.40;;;3.20;;
17145;SDS011;8688;54.444;18.444;2023-07-30T02:30:10;6.95;;;2.90;;
17145;SDS011;8688;54.444;18.444;2023-07-30T02:32:38;3.15;;;2.40;;
17145;SDS011;8688;54.444;18.444;2023-07-30T02:35:11;4.30;;;2.70;;
17145;SDS011;8688;54.444;18.444;2023-07-30T02:37:39;2.97;;;2.67;;
17145;SDS011;8688;54.444;18.444;2023-07-30T02:40:11;3.38;;;2.80;;
17145;SDS011;8688;54.444;18.444;2023-07-30T02:42:39;3.15;;;2.58;;
17145;SDS011;8688;54.444;18.444;2023-07-30T02:45:07;4.65;;;2.90;;
17145;SDS011;8688;54.444;18.444;2023-07-30T02:47:37;4.63;;;2.83;;
17145;SDS011;8688;54.444;18.444;2023-07-30T02:50:05;3.70;;;2.90;;
17145;SDS011;8688;54.444;18.444;2023-07-30T02:52:33;3.03;;;2.72;;
17145;SDS011;8688;54.444;18.444;2023-07-30T02:55:01;4.57;;;2.92;;
17145;SDS011;8688;54.444;18.444;2023-07-30T02:57:29;4.63;;;3.05;;
17145;SDS011;8688;54.444;18.444;2023-07-30T02:59:57;4.13;;;2.90;;
17145;SDS011;8688;54.444;18.444;2023-07-30T03:02:27;4.32;;;3.33;;
17145;SDS011;8688;54.444;18.444;2023-07-30T03:04:55;4.93;;;3.50;;
17145;SDS011;8688;54.444;18.444;2023-07-30T03:07:23;5.18;;;3.80;;
17145;SDS011;8688;54.444;18.444;2023-07-30T03:09:51;6.13;;;4.00;;
17145;SDS011;8688;54.444;18.444;2023-07-30T03:12:18;4.25;;;3.78;;
17145;SDS011;8688;54.444;18.444;2023-07-30T03:14:46;4.30;;;3.65;;
17145;SDS011;8688;54.444;18.444;2023-07-30T03:17:14;5.38;;;4.45;;
17145;SDS011;8688;54.444;18.444;2023-07-30T03:19:43;5.18;;;4.32;;
17145;SDS011;8688;54.444;18.444;2023-07-30T03:22:11;8.50;;;5.53;;
17145;SDS011;8688;54.444;18.444;2023-07-30T03:24:39;5.53;;;4.28;;
17145;SDS011;8688;54.444;18.444;2023-07-30T03:27:07;5.32;;;4.65;;
17145;SDS011;8688;54.444;18.444;2023-07-30T03:29:36;5.95;;;4.65;;
17145;SDS011;8688;54.444;18.444;2023-07-30T03:32:04;5.15;;;4.53;;
17145;SDS011;8688;54.444;18.444;2023-07-30T03:34:33;7.60;;;5.25;;
17145;SDS011;8688;54.444;18.444;2023-07-30T03:37:03;5.78;;;4.75;;
17145;SDS011;8688;54.444;18.444;2023-07-30T03:39:33;6.90;;;4.78;;
17145;SDS011;8688;54.444;18.444;2023-07-30T03:42:01;8.05;;;4.93;;
17145;SDS011;8688;54.444;18.444;2023-07-30T03:44:29;9.27;;;4.88;;
17145;SDS011;8688;54.444;18.444;2023-07-30T03:46:57;5.53;;;4.63;;
17145;SDS011;8688;54.444;18.444;2023-07-30T03:49:25;8.50;;;5.40;;
17145;SDS011;8688;54.444;18.444;2023-07-30T03:51:53;6.60;;;5.18;;
17145;SDS011;8688;54.444;18.444;2023-07-30T03:54:22;6.82;;;5.28;;
17145;SDS011;8688;54.444;18.444;2023-07-30T03:56:50;7.13;;;5.40;;
17145;SDS011;8688;54.444;18.444;2023-07-30T03:59:18;8.45;;;5.70;;
17145;SDS011;8688;54.444;18.444;2023-07-30T04:01:46;6.45;;;5.38;;
17145;SDS011;8688;54.444;18.444;2023-07-30T04:04:14;7.97;;;5.97;;
17145;SDS011;8688;54.444;18.444;2023-07-30T04:06:47;8.30;;;5.80;;
17145;SDS011;8688;54.444;18.444;2023-07-30T04:09:16;9.00;;;6.22;;
17145;SDS011;8688;54.444;18.444;2023-07-30T04:11:45;8.70;;;6.03;;
17145;SDS011;8688;54.444;18.444;2023-07-30T04:14:13;8.55;;;6.75;;
17145;SDS011;8688;54.444;18.444;2023-07-30T04:16:41;11.02;;;6.28;;
17145;SDS011;8688;54.444;18.444;2023-07-30T04:19:12;7.40;;;6.45;;
17145;SDS011;8688;54.444;18.444;2023-07-30T04:21:40;9.52;;;6.72;;
17145;SDS011;8688;54.444;18.444;2023-07-30T04:24:07;9.55;;;6.82;;
17145;SDS011;8688;54.444;18.444;2023-07-30T04:26:35;8.90;;;7.45;;
17145;SDS011;8688;54.444;18.444;2023-07-30T04:29:04;12.88;;;7.75;;
17145;SDS011;8688;54.444;18.444;2023-07-30T04:31:32;9.68;;;7.78;;
17145;SDS011;8688;54.444;18.444;2023-07-30T04:34:01;8.27;;;6.82;;
17145;SDS011;8688;54.444;18.444;2023-07-30T04:36:28;10.35;;;7.07;;
17145;SDS011;8688;54.444;18.444;2023-07-30T04:38:56;10.80;;;7.07;;
17145;SDS011;8688;54.444;18.444;2023-07-30T04:41:24;9.80;;;7.57;;
17145;SDS011;8688;54.444;18.444;2023-07-30T04:43:52;14.57;;;7.43;;
17145;SDS011;8688;54.444;18.444;2023-07-30T04:46:21;10.35;;;7.78;;
17145;SDS011;8688;54.444;18.444;2023-07-30T04:48:51;8.73;;;7.22;;
17145;SDS011;8688;54.444;18.444;2023-07-30T04:51:18;10.70;;;7.97;;
17145;SDS011;8688;54.444;18.444;2023-07-30T04:53:46;11.38;;;8.13;;
17145;SDS011;8688;54.444;18.444;2023-07-30T04:56:14;12.52;;;7.88;;
17145;SDS011;8688;54.444;18.444;2023-07-30T04:58:41;10.15;;;7.60;;
17145;SDS011;8688;54.444;18.444;2023-07-30T05:01:09;9.90;;;7.80;;
17145;SDS011;8688;54.444;18.444;2023-07-30T05:03:39;10.23;;;7.80;;
17145;SDS011;8688;54.444;18.444;2023-07-30T05:06:07;8.50;;;7.45;;
17145;SDS011;8688;54.444;18.444;2023-07-30T05:08:37;10.68;;;8.02;;
17145;SDS011;8688;54.444;18.444;2023-07-30T05:11:05;10.88;;;8.18;;
17145;SDS011;8688;54.444;18.444;2023-07-30T05:13:33;12.45;;;7.68;;
17145;SDS011;8688;54.444;18.444;2023-07-30T05:16:01;16.90;;;8.68;;
17145;SDS011;8688;54.444;18.444;2023-07-30T05:18:29;12.80;;;8.38;;
17145;SDS011;8688;54.444;18.444;2023-07-30T05:21:10;10.43;;;8.18;;
17145;SDS011;8688;54.444;18.444;2023-07-30T05:26:38;10.65;;;7.57;;
17145;SDS011;8688;54.444;18.444;2023-07-30T05:29:09;11.73;;;8.15;;
17145;SDS011;8688;54.444;18.444;2023-07-30T05:31:37;10.50;;;7.90;;
17145;SDS011;8688;54.444;18.444;2023-07-30T05:34:05;10.55;;;8.13;;
17145;SDS011;8688;54.444;18.444;2023-07-30T05:36:34;11.75;;;8.45;;
17145;SDS011;8688;54.444;18.444;2023-07-30T05:39:02;10.27;;;8.23;;
17145;SDS011;8688;54.444;18.444;2023-07-30T05:41:30;12.77;;;8.40;;
17145;SDS011;8688;54.444;18.444;2023-07-30T05:43:58;10.57;;;7.93;;
17145;SDS011;8688;54.444;18.444;2023-07-30T05:46:26;10.90;;;8.38;;
17145;SDS011;8688;54.444;18.444;2023-07-30T05:48:57;11.93;;;8.63;;
17145;SDS011;8688;54.444;18.444;2023-07-30T05:51:25;9.82;;;7.50;;
17145;SDS011;8688;54.444;18.444;2023-07-30T05:53:57;10.55;;;7.68;;
17145;SDS011;8688;54.444;18.444;2023-07-30T05:56:25;11.95;;;8.18;;
17145;SDS011;8688;54.444;18.444;2023-07-30T05:58:53;11.00;;;8.20;;
17145;SDS011;8688;54.444;18.444;2023-07-30T06:01:21;13.60;;;9.05;;
17145;SDS011;8688;54.444;18.444;2023-07-30T06:03:48;10.95;;;8.30;;
17145;SDS011;8688;54.444;18.444;2023-07-30T06:06:16;11.23;;;7.97;;
17145;SDS011;8688;54.444;18.444;2023-07-30T06:08:45;12.35;;;8.18;;
17145;SDS011;8688;54.444;18.444;2023-07-30T06:11:14;10.95;;;8.15;;
17145;SDS011;8688;54.444;18.444;2023-07-30T06:13:41;11.93;;;8.13;;
17145;SDS011;8688;54.444;18.444;2023-07-30T06:16:09;14.05;;;8.23;;
17145;SDS011;8688;54.444;18.444;2023-07-30T06:18:37;12.13;;;8.27;;
17145;SDS011;8688;54.444;18.444;2023-07-30T06:21:04;9.45;;;7.32;;
17145;SDS011;8688;54.444;18.444;2023-07-30T06:23:34;10.93;;;7.55;;
17145;SDS011;8688;54.444;18.444;2023-07-30T06:26:01;9.90;;;7.97;;
17145;SDS011;8688;54.444;18.444;2023-07-30T06:28:31;11.38;;;7.68;;
17145;SDS011;8688;54.444;18.444;2023-07-30T06:30:59;11.00;;;7.70;;
17145;SDS011;8688;54.444;18.444;2023-07-30T06:33:27;9.27;;;6.80;;
17145;SDS011;8688;54.444;18.444;2023-07-30T06:35:55;9.88;;;6.85;;
17145;SDS011;8688;54.444;18.444;2023-07-30T06:38:23;8.73;;;6.38;;
17145;SDS011;8688;54.444;18.444;2023-07-30T06:40:50;9.25;;;6.45;;
17145;SDS011;8688;54.444;18.444;2023-07-30T06:43:18;9.57;;;6.50;;
17145;SDS011;8688;54.444;18.444;2023-07-30T06:45:47;9.10;;;5.93;;
17145;SDS011;8688;54.444;18.444;2023-07-30T06:48:15;6.63;;;5.30;;
17145;SDS011;8688;54.444;18.444;2023-07-30T06:50:43;8.00;;;5.65;;
17145;SDS011;8688;54.444;18.444;2023-07-30T06:53:10;7.88;;;5.82;;
17145;SDS011;8688;54.444;18.444;2023-07-30T06:55:38;8.68;;;5.30;;
17145;SDS011;8688;54.444;18.444;2023-07-30T06:58:06;8.85;;;6.07;;
17145;SDS011;8688;54.444;18.444;2023-07-30T07:00:34;7.25;;;4.95;;
17145;SDS011;8688;54.444;18.444;2023-07-30T07:03:03;8.30;;;5.70;;
17145;SDS011;8688;54.444;18.444;2023-07-30T07:05:31;6.55;;;4.75;;
17145;SDS011;8688;54.444;18.444;2023-07-30T07:07:59;7.55;;;4.78;;
17145;SDS011;8688;54.444;18.444;2023-07-30T07:10:26;8.63;;;4.38;;
17145;SDS011;8688;54.444;18.444;2023-07-30T07:12:54;5.50;;;4.47;;
17145;SDS011;8688;54.444;18.444;2023-07-30T07:15:22;6.43;;;4.22;;
17145;SDS011;8688;54.444;18.444;2023-07-30T07:17:49;7.82;;;3.70;;
17145;SDS011;8688;54.444;18.444;2023-07-30T07:20:19;7.20;;;4.13;;
17145;SDS011;8688;54.444;18.444;2023-07-30T07:22:46;6.35;;;3.95;;
17145;SDS011;8688;54.444;18.444;2023-07-30T07:25:14;5.18;;;4.07;;
17145;SDS011;8688;54.444;18.444;2023-07-30T07:27:44;7.00;;;3.78;;
17145;SDS011;8688;54.444;18.444;2023-07-30T07:30:11;6.18;;;4.25;;
17145;SDS011;8688;54.444;18.444;2023-07-30T07:32:39;6.68;;;3.88;;
17145;SDS011;8688;54.444;18.444;2023-07-30T07:35:07;7.07;;;4.03;;
17145;SDS011;8688;54.444;18.444;2023-07-30T07:37:37;8.43;;;4.35;;
17145;SDS011;8688;54.444;18.444;2023-07-30T07:40:05;8.05;;;4.28;;
17145;SDS011;8688;54.444;18.444;2023-07-30T07:42:34;7.15;;;4.53;;
17145;SDS011;8688;54.444;18.444;2023-07-30T07:45:02;5.53;;;4.30;;
17145;SDS011;8688;54.444;18.444;2023-07-30T07:47:31;5.63;;;4.53;;
17145;SDS011;8688;54.444;18.444;2023-07-30T07:49:58;7.18;;;4.10;;
17145;SDS011;8688;54.444;18.444;2023-07-30T07:52:26;6.30;;;4.03;;
17145;SDS011;8688;54.444;18.444;2023-07-30T07:54:55;7.25;;;4.30;;
17145;SDS011;8688;54.444;18.444;2023-07-30T07:57:23;6.38;;;4.25;;
17145;SDS011;8688;54.444;18.444;2023-07-30T07:59:51;6.05;;;4.68;;
17145;SDS011;8688;54.444;18.444;2023-07-30T08:02:19;6.68;;;3.80;;
17145;SDS011;8688;54.444;18.444;2023-07-30T08:04:46;6.15;;;4.00;;
17145;SDS011;8688;54.444;18.444;2023-07-30T08:07:14;6.38;;;3.65;;
17145;SDS011;8688;54.444;18.444;2023-07-30T08:09:42;7.10;;;3.70;;
17145;SDS011;8688;54.444;18.444;2023-07-30T08:12:11;4.57;;;3.60;;
17145;SDS011;8688;54.444;18.444;2023-07-30T08:14:39;6.38;;;3.55;;
17145;SDS011;8688;54.444;18.444;2023-07-30T08:17:07;5.85;;;3.53;;
17145;SDS011;8688;54.444;18.444;2023-07-30T08:19:34;5.75;;;3.30;;
17145;SDS011;8688;54.444;18.444;2023-07-30T08:22:03;4.25;;;3.30;;
17145;SDS011;8688;54.444;18.444;2023-07-30T08:24:33;3.88;;;2.85;;
17145;SDS011;8688;54.444;18.444;2023-07-30T08:27:01;3.50;;;2.92;;
17145;SDS011;8688;54.444;18.444;2023-07-30T08:29:30;5.43;;;3.30;;
17145;SDS011;8688;54.444;18.444;2023-07-30T08:32:00;5.78;;;2.95;;
17145;SDS011;8688;54.444;18.444;2023-07-30T08:34:30;5.32;;;3.08;;
17145;SDS011;8688;54.444;18.444;2023-07-30T08:37:00;3.85;;;3.22;;
17145;SDS011;8688;54.444;18.444;2023-07-30T08:39:28;5.93;;;3.33;;
17145;SDS011;8688;54.444;18.444;2023-07-30T08:41:58;4.00;;;3.35;;
17145;SDS011;8688;54.444;18.444;2023-07-30T08:44:27;6.93;;;3.25;;
17145;SDS011;8688;54.444;18.444;2023-07-30T08:46:57;4.97;;;3.30;;
17145;SDS011;8688;54.444;18.444;2023-07-30T08:49:30;5.47;;;3.28;;
17145;SDS011;8688;54.444;18.444;2023-07-30T08:52:01;4.47;;;2.85;;
17145;SDS011;8688;54.444;18.444;2023-07-30T08:54:30;10.48;;;4.05;;
17145;SDS011;8688;54.444;18.444;2023-07-30T08:56:58;3.92;;;2.83;;
17145;SDS011;8688;54.444;18.444;2023-07-30T08:59:27;3.78;;;2.65;;
17145;SDS011;8688;54.444;18.444;2023-07-30T09:02:01;3.42;;;2.42;;
17145;SDS011;8688;54.444;18.444;2023-07-30T09:04:31;4.45;;;2.60;;
17145;SDS011;8688;54.444;18.444;2023-07-30T09:07:03;3.17;;;2.70;;
17145;SDS011;8688;54.444;18.444;2023-07-30T09:09:34;3.95;;;2.80;;
17145;SDS011;8688;54.444;18.444;2023-07-30T09:12:03;5.68;;;2.63;;
17145;SDS011;8688;54.444;18.444;2023-07-30T09:14:39;4.40;;;2.60;;
17145;SDS011;8688;54.444;18.444;2023-07-30T09:17:11;4.28;;;2.70;;
17145;SDS011;8688;54.444;18.444;2023-07-30T09:19:44;3.17;;;2.50;;
17145;SDS011;8688;54.444;18.444;2023-07-30T09:22:19;5.30;;;2.60;;
17145;SDS011;8688;54.444;18.444;2023-07-30T09:24:50;4.13;;;2.30;;
17145;SDS011;8688;54.444;18.444;2023-07-30T09:27:19;3.08;;;2.22;;
17145;SDS011;8688;54.444;18.444;2023-07-30T09:29:51;4.18;;;2.28;;
17145;SDS011;8688;54.444;18.444;2023-07-30T09:32:25;3.10;;;2.53;;
17145;SDS011;8688;54.444;18.444;2023-07-30T09:34:53;3.72;;;2.47;;
17145;SDS011;8688;54.444;18.444;2023-07-30T09:37:21;3.22;;;2.45;;
17145;SDS011;8688;54.444;18.444;2023-07-30T09:39:49;2.67;;;2.20;;
17145;SDS011;8688;54.444;18.444;2023-07-30T09:42:17;4.63;;;2.85;;
17145;SDS011;8688;54.444;18.444;2023-07-30T09:44:46;3.60;;;2.17;;
17145;SDS011;8688;54.444;18.444;2023-07-30T09:47:15;4.90;;;2.20;;
17145;SDS011;8688;54.444;18.444;2023-07-30T09:49:44;4.55;;;2.83;;
17145;SDS011;8688;54.444;18.444;2023-07-30T09:52:12;5.30;;;2.40;;
17145;SDS011;8688;54.444;18.444;2023-07-30T09:54:42;3.50;;;2.38;;
17145;SDS011;8688;54.444;18.444;2023-07-30T09:57:10;2.80;;;2.50;;
17145;SDS011;8688;54.444;18.444;2023-07-30T09:59:37;3.88;;;2.25;;
17145;SDS011;8688;54.444;18.444;2023-07-30T10:02:05;3.97;;;2.33;;
17145;SDS011;8688;54.444;18.444;2023-07-30T10:04:35;3.22;;;2.13;;
17145;SDS011;8688;54.444;18.444;2023-07-30T10:07:10;3.95;;;2.30;;
17145;SDS011;8688;54.444;18.444;2023-07-30T10:09:42;4.22;;;2.47;;
17145;SDS011;8688;54.444;18.444;2023-07-30T10:12:13;3.38;;;2.20;;
17145;SDS011;8688;54.444;18.444;2023-07-30T10:14:43;3.33;;;2.30;;
17145;SDS011;8688;54.444;18.444;2023-07-30T10:17:11;4.07;;;2.20;;
17145;SDS011;8688;54.444;18.444;2023-07-30T10:19:40;2.58;;;2.25;;
17145;SDS011;8688;54.444;18.444;2023-07-30T10:22:22;3.33;;;2.40;;
17145;SDS011;8688;54.444;18.444;2023-07-30T10:24:58;2.85;;;2.03;;
17145;SDS011;8688;54.444;18.444;2023-07-30T10:27:27;2.83;;;2.33;;
17145;SDS011;8688;54.444;18.444;2023-07-30T10:30:09;3.88;;;2.45;;
17145;SDS011;8688;54.444;18.444;2023-07-30T10:32:38;2.80;;;2.20;;
17145;SDS011;8688;54.444;18.444;2023-07-30T10:35:06;2.67;;;1.80;;
17145;SDS011;8688;54.444;18.444;2023-07-30T10:37:37;7.75;;;2.28;;
17145;SDS011;8688;54.444;18.444;2023-07-30T10:40:18;4.15;;;2.30;;
17145;SDS011;8688;54.444;18.444;2023-07-30T10:42:45;6.95;;;2.70;;
17145;SDS011;8688;54.444;18.444;2023-07-30T10:45:14;4.80;;;2.40;;
17145;SDS011;8688;54.444;18.444;2023-07-30T10:47:42;6.32;;;2.53;;
17145;SDS011;8688;54.444;18.444;2023-07-30T10:50:09;5.78;;;2.55;;
17145;SDS011;8688;54.444;18.444;2023-07-30T10:52:40;4.18;;;2.30;;
17145;SDS011;8688;54.444;18.444;2023-07-30T10:55:08;4.22;;;2.47;;
17145;SDS011;8688;54.444;18.444;2023-07-30T10:57:35;4.50;;;2.53;;
17145;SDS011;8688;54.444;18.444;2023-07-30T11:00:06;3.17;;;2.28;;
17145;SDS011;8688;54.444;18.444;2023-07-30T11:02:34;4.55;;;2.40;;
17145;SDS011;8688;54.444;18.444;2023-07-30T11:05:11;3.80;;;2.42;;
17145;SDS011;8688;54.444;18.444;2023-07-30T11:07:40;5.15;;;2.45;;
17145;SDS011;8688;54.444;18.444;2023-07-30T11:10:16;6.00;;;3.00;;
17145;SDS011;8688;54.444;18.444;2023-07-30T11:12:44;8.73;;;2.97;;
17145;SDS011;8688;54.444;18.444;2023-07-30T11:15:12;5.50;;;2.88;;
17145;SDS011;8688;54.444;18.444;2023-07-30T11:17:40;6.32;;;2.90;;
17145;SDS011;8688;54.444;18.444;2023-07-30T11:20:21;5.10;;;2.97;;
17145;SDS011;8688;54.444;18.444;2023-07-30T11:22:51;6.80;;;3.28;;
17145;SDS011;8688;54.444;18.444;2023-07-30T11:25:18;4.72;;;3.28;;
17145;SDS011;8688;54.444;18.444;2023-07-30T11:27:46;5.68;;;3.40;;
17145;SDS011;8688;54.444;18.444;2023-07-30T11:30:14;7.10;;;3.63;;
17145;SDS011;8688;54.444;18.444;2023-07-30T11:32:42;5.22;;;3.20;;
17145;SDS011;8688;54.444;18.444;2023-07-30T11:35:11;7.28;;;4.03;;
17145;SDS011;8688;54.444;18.444;2023-07-30T11:37:40;4.70;;;3.17;;
17145;SDS011;8688;54.444;18.444;2023-07-30T11:40:11;4.65;;;3.17;;
17145;SDS011;8688;54.444;18.444;2023-07-30T11:42:38;4.53;;;3.10;;
17145;SDS011;8688;54.444;18.444;2023-07-30T11:45:17;4.22;;;2.70;;
17145;SDS011;8688;54.444;18.444;2023-07-30T11:47:46;4.68;;;3.00;;
17145;SDS011;8688;54.444;18.444;2023-07-30T11:50:14;5.43;;;2.60;;
17145;SDS011;8688;54.444;18.444;2023-07-30T11:52:52;5.32;;;2.80;;
17145;SDS011;8688;54.444;18.444;2023-07-30T11:55:23;7.00;;;2.90;;
17145;SDS011;8688;54.444;18.444;2023-07-30T11:58:03;5.85;;;2.95;;
17145;SDS011;8688;54.444;18.444;2023-07-30T12:00:31;3.63;;;2.78;;
17145;SDS011;8688;54.444;18.444;2023-07-30T12:02:59;3.70;;;2.70;;
17145;SDS011;8688;54.444;18.444;2023-07-30T12:05:32;3.28;;;2.55;;
17145;SDS011;8688;54.444;18.444;2023-07-30T12:08:01;4.22;;;2.83;;
17145;SDS011;8688;54.444;18.444;2023-07-30T12:10:41;3.72;;;2.67;;
17145;SDS011;8688;54.444;18.444;2023-07-30T12:13:15;4.00;;;2.90;;
17145;SDS011;8688;54.444;18.444;2023-07-30T12:15:46;3.45;;;2.50;;
17145;SDS011;8688;54.444;18.444;2023-07-30T12:18:18;4.03;;;2.40;;
17145;SDS011;8688;54.444;18.444;2023-07-30T12:20:46;3.33;;;3.00;;
17145;SDS011;8688;54.444;18.444;2023-07-30T12:23:15;4.07;;;2.70;;
17145;SDS011;8688;54.444;18.444;2023-07-30T12:25:45;2.97;;;2.55;;
17145;SDS011;8688;54.444;18.444;2023-07-30T12:28:13;3.90;;;2.60;;
17145;SDS011;8688;54.444;18.444;2023-07-30T12:30:41;4.78;;;2.30;;
17145;SDS011;8688;54.444;18.444;2023-07-30T12:33:08;2.83;;;2.17;;
17145;SDS011;8688;54.444;18.444;2023-07-30T12:35:36;2.97;;;2.45;;
17145;SDS011;8688;54.444;18.444;2023-07-30T12:38:04;5.13;;;2.47;;
17145;SDS011;8688;54.444;18.444;2023-07-30T12:40:32;2.63;;;2.30;;
17145;SDS011;8688;54.444;18.444;2023-07-30T12:43:02;5.13;;;2.50;;
17145;SDS011;8688;54.444;18.444;2023-07-30T12:45:30;3.95;;;2.60;;
17145;SDS011;8688;54.444;18.444;2023-07-30T12:47:58;3.97;;;2.35;;
17145;SDS011;8688;54.444;18.444;2023-07-30T12:50:27;3.03;;;2.33;;
17145;SDS011;8688;54.444;18.444;2023-07-30T12:52:55;2.45;;;2.17;;
17145;SDS011;8688;54.444;18.444;2023-07-30T12:55:23;3.65;;;2.78;;
17145;SDS011;8688;54.444;18.444;2023-07-30T12:57:51;4.47;;;2.60;;
17145;SDS011;8688;54.444;18.444;2023-07-30T13:00:21;4.45;;;2.20;;
17145;SDS011;8688;54.444;18.444;2023-07-30T13:02:49;3.50;;;2.30;;
17145;SDS011;8688;54.444;18.444;2023-07-30T13:05:23;2.40;;;2.20;;
17145;SDS011;8688;54.444;18.444;2023-07-30T13:07:51;3.88;;;2.33;;
17145;SDS011;8688;54.444;18.444;2023-07-30T13:10:20;4.90;;;2.13;;
17145;SDS011;8688;54.444;18.444;2023-07-30T13:12:48;3.08;;;2.10;;
17145;SDS011;8688;54.444;18.444;2023-07-30T13:15:17;3.85;;;2.40;;
17145;SDS011;8688;54.444;18.444;2023-07-30T13:17:47;3.63;;;2.30;;
17145;SDS011;8688;54.444;18.444;2023-07-30T13:20:16;2.28;;;2.08;;
17145;SDS011;8688;54.444;18.444;2023-07-30T13:22:44;2.90;;;2.20;;
17145;SDS011;8688;54.444;18.444;2023-07-30T13:25:14;3.10;;;2.20;;
17145;SDS011;8688;54.444;18.444;2023-07-30T13:27:42;3.15;;;2.00;;
17145;SDS011;8688;54.444;18.444;2023-07-30T13:30:10;4.22;;;2.00;;
17145;SDS011;8688;54.444;18.444;2023-07-30T13:32:41;2.88;;;2.08;;
17145;SDS011;8688;54.444;18.444;2023-07-30T13:35:11;2.60;;;2.20;;
17145;SDS011;8688;54.444;18.444;2023-07-30T13:37:41;2.42;;;2.00;;
17145;SDS011;8688;54.444;18.444;2023-07-30T13:40:09;3.63;;;2.00;;
17145;SDS011;8688;54.444;18.444;2023-07-30T13:42:37;3.33;;;2.00;;
17145;SDS011;8688;54.444;18.444;2023-07-30T13:45:07;3.00;;;2.22;;
17145;SDS011;8688;54.444;18.444;2023-07-30T13:47:36;2.50;;;1.92;;
17145;SDS011;8688;54.444;18.444;2023-07-30T13:50:04;4.68;;;2.15;;
17145;SDS011;8688;54.444;18.444;2023-07-30T13:52:35;3.33;;;2.00;;
17145;SDS011;8688;54.444;18.444;2023-07-30T13:55:07;3.92;;;1.88;;
17145;SDS011;8688;54.444;18.444;2023-07-30T13:57:35;3.15;;;2.00;;
17145;SDS011;8688;54.444;18.444;2023-07-30T14:00:05;3.95;;;2.15;;
17145;SDS011;8688;54.444;18.444;2023-07-30T14:02:37;2.22;;;2.03;;
17145;SDS011;8688;54.444;18.444;2023-07-30T14:05:06;3.03;;;1.73;;
17145;SDS011;8688;54.444;18.444;2023-07-30T14:07:37;2.90;;;2.08;;
17145;SDS011;8688;54.444;18.444;2023-07-30T14:10:06;2.72;;;2.10;;
17145;SDS011;8688;54.444;18.444;2023-07-30T14:12:35;4.53;;;2.20;;
17145;SDS011;8688;54.444;18.444;2023-07-30T14:15:05;4.88;;;2.50;;
17145;SDS011;8688;54.444;18.444;2023-07-30T14:17:35;5.65;;;2.42;;
17145;SDS011;8688;54.444;18.444;2023-07-30T14:20:03;5.15;;;2.50;;
17145;SDS011;8688;54.444;18.444;2023-07-30T14:22:33;5.72;;;2.40;;
17145;SDS011;8688;54.444;18.444;2023-07-30T14:25:03;4.85;;;2.70;;
17145;SDS011;8688;54.444;18.444;2023-07-30T14:27:31;4.38;;;2.25;;
17145;SDS011;8688;54.444;18.444;2023-07-30T14:29:59;5.65;;;2.88;;
17145;SDS011;8688;54.444;18.444;2023-07-30T14:32:27;5.75;;;2.65;;
17145;SDS011;8688;54.444;18.444;2023-07-30T14:34:55;5.53;;;2.58;;
17145;SDS011;8688;54.444;18.444;2023-07-30T14:37:23;5.63;;;2.50;;
17145;SDS011;8688;54.444;18.444;2023-07-30T14:39:52;4.18;;;2.40;;
17145;SDS011;8688;54.444;18.444;2023-07-30T14:42:22;5.43;;;2.60;;
17145;SDS011;8688;54.444;18.444;2023-07-30T14:44:53;5.72;;;2.22;;
17145;SDS011;8688;54.444;18.444;2023-07-30T14:47:22;4.80;;;2.67;;
17145;SDS011;8688;54.444;18.444;2023-07-30T14:49:50;4.13;;;2.42;;
17145;SDS011;8688;54.444;18.444;2023-07-30T14:52:20;5.45;;;2.72;;
17145;SDS011;8688;54.444;18.444;2023-07-30T14:54:49;4.05;;;2.38;;
17145;SDS011;8688;54.444;18.444;2023-07-30T14:57:18;3.80;;;2.38;;
17145;SDS011;8688;54.444;18.444;2023-07-30T14:59:49;3.28;;;2.53;;